createdAt,value
2023-02-13T00:00:18.474Z,23.83
2023-02-13T00:02:45.273Z,19.67
2023-02-13T00:05:11.771Z,19.40
2023-02-13T00:07:38.242Z,17.70
2023-02-13T00:10:05.257Z,19.98
2023-02-13T00:12:31.698Z,20.95
2023-02-13T00:14:59.074Z,19.80
2023-02-13T00:17:26.442Z,20.92
2023-02-13T00:19:52.782Z,21.90
2023-02-13T00:22:19.141Z,20.90
2023-02-13T00:24:46.464Z,19.50
2023-02-13T00:27:12.933Z,20.92
2023-02-13T00:29:39.458Z,20.42
2023-02-13T00:32:05.969Z,24.63
2023-02-13T00:34:32.417Z,23.25
2023-02-13T00:36:58.865Z,22.65
2023-02-13T00:39:25.295Z,21.85
2023-02-13T00:41:51.632Z,21.95
2023-02-13T00:44:18.054Z,21.20
2023-02-13T00:46:44.458Z,20.75
2023-02-13T00:49:10.877Z,24.80
2023-02-13T00:51:37.270Z,23.67
2023-02-13T00:54:03.780Z,22.67
2023-02-13T00:56:30.140Z,22.55
2023-02-13T00:58:56.473Z,22.38
2023-02-13T01:01:22.903Z,22.52
2023-02-13T01:03:49.384Z,25.10
2023-02-13T01:06:15.842Z,23.52
2023-02-13T01:08:42.627Z,20.88
2023-02-13T01:11:09.322Z,21.23
2023-02-13T01:13:36.293Z,19.65
2023-02-13T01:16:02.719Z,20.73
2023-02-13T01:18:29.460Z,19.48
2023-02-13T01:21:01.477Z,22.98
2023-02-13T01:23:37.982Z,20.73
2023-02-13T01:26:05.943Z,22.60
2023-02-13T01:28:32.716Z,23.83
2023-02-13T01:31:00.257Z,21.92
2023-02-13T01:33:28.317Z,21.90
2023-02-13T01:35:54.713Z,21.85
2023-02-13T01:38:21.582Z,25.33
2023-02-13T01:40:49.390Z,19.77
2023-02-13T01:43:15.968Z,22.25
2023-02-13T01:45:45.844Z,22.00
2023-02-13T01:48:21.122Z,20.95
2023-02-13T01:50:52.931Z,19.77
2023-02-13T01:53:27.805Z,21.00
2023-02-13T01:56:13.375Z,20.23
2023-02-13T01:58:43.155Z,20.55
2023-02-13T02:01:10.628Z,21.23
2023-02-13T02:03:59.675Z,22.13
2023-02-13T02:06:57.166Z,21.52
2023-02-13T02:09:27.546Z,19.67
2023-02-13T02:12:01.518Z,22.67
2023-02-13T02:14:28.229Z,21.05
2023-02-13T02:16:54.614Z,23.52
2023-02-13T02:19:27.367Z,22.45
2023-02-13T02:22:16.345Z,23.20
2023-02-13T02:25:00.845Z,21.20
2023-02-13T02:28:05.844Z,20.25
2023-02-13T02:31:08.578Z,21.73
2023-02-13T02:33:56.243Z,22.42
2023-02-13T02:36:46.748Z,18.63
2023-02-13T02:39:31.816Z,23.98
2023-02-13T02:42:18.507Z,21.50
2023-02-13T02:45:10.221Z,22.13
2023-02-13T02:48:19.483Z,20.02
2023-02-13T02:51:03.089Z,23.17
2023-02-13T02:53:35.313Z,21.75
2023-02-13T02:56:12.699Z,20.10
2023-02-13T02:59:06.783Z,21.60
2023-02-13T03:01:53.086Z,21.80
2023-02-13T03:07:10.556Z,19.27
2023-02-13T03:09:59.946Z,21.70
2023-02-13T03:12:52.291Z,20.45
2023-02-13T03:15:19.201Z,21.23
2023-02-13T03:18:03.942Z,21.83
2023-02-13T03:21:12.032Z,21.50
2023-02-13T03:23:55.103Z,19.90
2023-02-13T03:26:46.084Z,21.92
2023-02-13T03:29:37.108Z,21.52
2023-02-13T03:32:26.260Z,20.60
2023-02-13T03:35:23.227Z,22.77
2023-02-13T03:37:56.013Z,21.50
2023-02-13T03:40:38.084Z,21.25
2023-02-13T03:43:14.309Z,19.48
2023-02-13T03:45:57.214Z,21.50
2023-02-13T03:48:52.203Z,22.35
2023-02-13T03:51:30.927Z,22.10
2023-02-13T03:54:01.867Z,25.10
2023-02-13T03:56:50.263Z,23.38
2023-02-13T03:59:22.453Z,24.02
2023-02-13T04:02:07.866Z,23.73
2023-02-13T04:04:49.804Z,23.27
2023-02-13T04:07:32.813Z,20.90
2023-02-13T04:10:07.221Z,21.63
2023-02-13T04:12:41.774Z,22.30
2023-02-13T04:15:27.343Z,21.25
2023-02-13T04:18:05.473Z,20.33
2023-02-13T04:20:32.716Z,21.35
2023-02-13T04:23:05.062Z,20.10
2023-02-13T04:25:31.533Z,21.95
2023-02-13T04:27:57.857Z,21.70
2023-02-13T04:30:24.345Z,19.75
2023-02-13T04:32:52.737Z,22.92
2023-02-13T04:35:19.076Z,22.95
2023-02-13T04:37:45.423Z,21.38
2023-02-13T04:40:12.057Z,22.10
2023-02-13T04:42:39.284Z,19.98
2023-02-13T04:45:05.830Z,21.70
2023-02-13T04:47:32.930Z,23.38
2023-02-13T04:49:59.309Z,23.40
2023-02-13T04:52:25.621Z,23.10
2023-02-13T04:54:51.987Z,23.65
2023-02-13T04:57:18.306Z,25.42
2023-02-13T04:59:44.669Z,21.63
2023-02-13T05:02:10.989Z,22.80
2023-02-13T05:04:37.351Z,23.10
2023-02-13T05:07:03.782Z,20.55
2023-02-13T05:09:30.118Z,20.42
2023-02-13T05:11:56.488Z,22.73
2023-02-13T05:14:22.869Z,23.95
2023-02-13T05:16:49.714Z,21.70
2023-02-13T05:19:16.891Z,22.92
2023-02-13T05:22:02.291Z,21.48
2023-02-13T05:24:28.601Z,21.87
2023-02-13T05:26:55.039Z,22.77
2023-02-13T05:29:22.946Z,21.15
2023-02-13T05:31:54.357Z,23.88
2023-02-13T05:34:22.191Z,22.33
2023-02-13T05:36:48.846Z,21.67
2023-02-13T05:39:15.346Z,21.98
2023-02-13T05:41:46.054Z,23.38
2023-02-13T05:44:13.520Z,23.55
2023-02-13T05:46:41.689Z,22.50
2023-02-13T05:49:09.905Z,24.27
2023-02-13T05:51:36.843Z,25.60
2023-02-13T05:54:03.649Z,23.42
2023-02-13T05:56:30.422Z,24.00
2023-02-13T05:58:57.478Z,21.95
2023-02-13T06:01:24.941Z,22.02
2023-02-13T06:03:51.473Z,27.35
2023-02-13T06:06:18.166Z,25.50
2023-02-13T06:08:44.609Z,22.40
2023-02-13T06:11:11.250Z,22.23
2023-02-13T06:13:40.528Z,22.45
2023-02-13T06:16:08.299Z,25.90
2023-02-13T06:18:35.372Z,22.60
2023-02-13T06:21:02.210Z,23.02
2023-02-13T06:23:29.188Z,24.02
2023-02-13T06:25:55.601Z,25.55
2023-02-13T06:28:21.996Z,24.25
2023-02-13T06:30:49.081Z,23.05
2023-02-13T06:33:15.431Z,21.50
2023-02-13T06:35:41.780Z,22.23
2023-02-13T06:38:08.131Z,21.40
2023-02-13T06:40:34.442Z,21.23
2023-02-13T06:43:00.843Z,23.17
2023-02-13T06:45:27.296Z,19.10
2023-02-13T06:47:54.144Z,22.92
2023-02-13T06:50:20.577Z,21.05
2023-02-13T06:52:51.833Z,23.52
2023-02-13T06:55:19.286Z,21.27
2023-02-13T06:57:45.769Z,21.30
2023-02-13T07:00:14.103Z,22.40
2023-02-13T07:02:42.001Z,22.67
2023-02-13T07:05:09.219Z,22.40
2023-02-13T07:07:37.364Z,23.83
2023-02-13T07:10:05.778Z,23.08
2023-02-13T07:12:36.609Z,20.75
2023-02-13T07:15:08.095Z,20.80
2023-02-13T07:17:34.598Z,22.27
2023-02-13T07:20:01.023Z,21.35
2023-02-13T07:22:27.564Z,22.65
2023-02-13T07:24:53.983Z,22.33
2023-02-13T07:27:20.330Z,22.25
2023-02-13T07:29:49.921Z,21.17
2023-02-13T07:32:16.306Z,20.15
2023-02-13T07:35:00.620Z,20.55
2023-02-13T07:37:29.490Z,18.08
2023-02-13T07:39:55.853Z,20.83
2023-02-13T07:42:22.368Z,21.63
2023-02-13T07:44:48.833Z,22.17
2023-02-13T07:47:15.344Z,23.52
2023-02-13T07:49:41.886Z,21.50
2023-02-13T07:52:08.316Z,21.00
2023-02-13T07:54:34.669Z,20.20
2023-02-13T07:57:01.078Z,19.77
2023-02-13T07:59:27.548Z,16.48
2023-02-13T08:01:54.002Z,19.02
2023-02-13T08:04:20.499Z,18.48
2023-02-13T08:06:46.844Z,19.95
2023-02-13T08:09:40.783Z,18.70
2023-02-13T08:12:09.188Z,16.75
2023-02-13T08:14:35.579Z,16.23
2023-02-13T08:17:02.129Z,18.13
2023-02-13T08:19:28.530Z,17.40
2023-02-13T08:21:55.032Z,18.83
2023-02-13T08:24:21.751Z,18.10
2023-02-13T08:26:48.207Z,22.65
2023-02-13T08:29:14.569Z,19.80
2023-02-13T08:31:41.220Z,19.67
2023-02-13T08:34:07.615Z,21.92
2023-02-13T08:36:33.934Z,17.10
2023-02-13T08:39:00.680Z,18.92
2023-02-13T08:41:27.106Z,15.38
2023-02-13T08:43:54.342Z,16.55
2023-02-13T08:46:20.940Z,16.10
2023-02-13T08:48:47.339Z,15.50
2023-02-13T08:51:14.238Z,15.43
2023-02-13T08:53:42.347Z,18.25
2023-02-13T08:56:09.600Z,17.20
2023-02-13T08:58:36.144Z,16.13
2023-02-13T09:01:07.229Z,16.05
2023-02-13T09:03:34.170Z,15.20
2023-02-13T09:06:02.215Z,15.05
2023-02-13T09:08:28.660Z,17.15
2023-02-13T09:10:58.087Z,14.85
2023-02-13T09:13:24.623Z,14.57
2023-02-13T09:15:50.977Z,14.60
2023-02-13T09:18:17.347Z,14.48
2023-02-13T09:20:43.781Z,13.95
2023-02-13T09:23:10.172Z,14.48
2023-02-13T09:25:36.754Z,37.97
2023-02-13T09:28:03.160Z,37.03
2023-02-13T09:30:29.554Z,23.92
2023-02-13T09:32:56.012Z,18.58
2023-02-13T09:35:23.183Z,12.23
2023-02-13T09:37:49.531Z,12.00
2023-02-13T09:40:25.560Z,14.10
2023-02-13T09:42:53.149Z,12.63
2023-02-13T09:45:21.943Z,12.90
2023-02-13T09:47:50.110Z,16.70
2023-02-13T09:50:23.875Z,11.60
2023-02-13T09:52:52.830Z,11.35
2023-02-13T09:55:24.644Z,11.15
2023-02-13T09:58:03.076Z,11.63
2023-02-13T10:00:50.933Z,10.32
2023-02-13T10:03:37.625Z,11.50
2023-02-13T10:06:26.029Z,9.95
2023-02-13T10:09:01.118Z,10.35
2023-02-13T10:11:38.436Z,10.70
2023-02-13T10:14:19.608Z,9.88
2023-02-13T10:17:01.306Z,10.15
2023-02-13T10:19:45.799Z,11.25
2023-02-13T10:22:16.745Z,8.98
2023-02-13T10:24:50.573Z,11.65
2023-02-13T10:27:23.878Z,9.77
2023-02-13T10:30:06.965Z,10.18
2023-02-13T10:32:45.435Z,12.38
2023-02-13T10:35:38.374Z,10.88
2023-02-13T10:38:17.624Z,10.70
2023-02-13T10:41:04.995Z,9.95
2023-02-13T10:43:59.619Z,9.73
2023-02-13T10:46:59.817Z,10.68
2023-02-13T10:50:04.011Z,11.32
2023-02-13T10:52:57.150Z,11.02
2023-02-13T10:55:23.635Z,10.68
2023-02-13T10:58:09.705Z,10.80
2023-02-13T11:00:48.906Z,10.88
2023-02-13T11:03:22.305Z,12.02
2023-02-13T11:05:49.888Z,11.85
2023-02-13T11:08:20.191Z,13.85
2023-02-13T11:10:47.103Z,10.55
2023-02-13T11:13:25.038Z,12.82
2023-02-13T11:16:01.992Z,11.93
2023-02-13T11:18:32.015Z,12.82
2023-02-13T11:21:21.917Z,11.88
2023-02-13T11:23:57.313Z,11.63
2023-02-13T11:26:36.460Z,11.90
2023-02-13T11:29:18.284Z,12.15
2023-02-13T11:31:44.752Z,11.15
2023-02-13T11:34:29.582Z,10.77
2023-02-13T11:37:14.165Z,9.77
2023-02-13T11:39:42.647Z,10.35
2023-02-13T11:42:32.354Z,10.45
2023-02-13T11:45:02.667Z,11.13
2023-02-13T11:47:42.589Z,9.95
2023-02-13T11:50:29.594Z,9.90
2023-02-13T11:52:59.955Z,9.85
2023-02-13T11:55:28.321Z,9.02
2023-02-13T11:58:03.773Z,9.13
2023-02-13T12:00:40.019Z,10.30
2023-02-13T12:03:22.475Z,9.40
2023-02-13T12:06:00.419Z,10.07
2023-02-13T12:08:27.923Z,9.63
2023-02-13T12:10:56.681Z,10.20
2023-02-13T12:13:32.771Z,10.27
2023-02-13T12:16:05.318Z,9.77
2023-02-13T12:18:39.729Z,10.27
2023-02-13T12:21:24.493Z,9.45
2023-02-13T12:24:03.069Z,10.85
2023-02-13T12:26:38.571Z,9.73
2023-02-13T12:29:29.251Z,11.32
2023-02-13T12:32:02.819Z,11.38
2023-02-13T12:34:57.938Z,11.65
2023-02-13T12:37:44.426Z,14.77
2023-02-13T12:40:28.598Z,9.90
2023-02-13T12:43:23.768Z,9.98
2023-02-13T12:46:06.559Z,13.48
2023-02-13T12:48:32.911Z,12.38
2023-02-13T12:51:24.720Z,12.18
2023-02-13T12:54:07.940Z,10.77
2023-02-13T12:56:49.744Z,9.43
2023-02-13T12:59:45.579Z,10.13
2023-02-13T13:02:57.090Z,9.75
2023-02-13T13:05:30.189Z,9.23
2023-02-13T13:08:36.832Z,9.40
2023-02-13T13:11:29.155Z,9.80
2023-02-13T13:14:00.891Z,9.38
2023-02-13T13:16:45.292Z,9.00
2023-02-13T13:19:40.462Z,8.73
2023-02-13T13:22:19.743Z,8.25
2023-02-13T13:24:48.843Z,8.98
2023-02-13T13:27:23.575Z,11.57
2023-02-13T13:29:59.176Z,10.40
2023-02-13T13:32:27.342Z,8.68
2023-02-13T13:34:54.840Z,11.80
2023-02-13T13:37:26.798Z,11.65
2023-02-13T13:40:16.359Z,9.80
2023-02-13T13:42:54.586Z,8.65
2023-02-13T13:45:35.590Z,8.43
2023-02-13T13:48:21.551Z,12.52
2023-02-13T13:50:49.014Z,11.30
2023-02-13T13:53:20.817Z,9.18
2023-02-13T13:55:47.410Z,9.38
2023-02-13T13:58:32.991Z,9.55
2023-02-13T14:01:14.650Z,14.50
2023-02-13T14:03:46.033Z,12.00
2023-02-13T14:06:49.228Z,9.38
2023-02-13T14:09:27.695Z,8.75
2023-02-13T14:11:56.485Z,8.20
2023-02-13T14:14:42.806Z,10.02
2023-02-13T14:17:14.393Z,8.57
2023-02-13T14:19:51.814Z,8.30
2023-02-13T14:22:36.145Z,9.27
2023-02-13T14:25:06.482Z,8.95
2023-02-13T14:27:38.558Z,9.00
2023-02-13T14:30:24.545Z,8.10
2023-02-13T14:32:51.295Z,8.00
2023-02-13T14:35:30.187Z,7.60
2023-02-13T14:37:59.399Z,7.18
2023-02-13T14:40:43.152Z,7.45
2023-02-13T14:43:33.782Z,9.70
2023-02-13T14:46:06.217Z,8.93
2023-02-13T14:48:39.542Z,6.93
2023-02-13T14:51:07.697Z,6.80
2023-02-13T14:54:03.621Z,8.75
2023-02-13T14:56:31.491Z,8.37
2023-02-13T14:59:32.734Z,9.02
2023-02-13T15:02:14.019Z,8.13
2023-02-13T15:04:47.588Z,8.32
2023-02-13T15:07:19.961Z,8.93
2023-02-13T15:09:56.342Z,7.75
2023-02-13T15:12:36.838Z,8.15
2023-02-13T15:15:23.532Z,7.82
2023-02-13T15:17:50.485Z,8.40
2023-02-13T15:20:24.898Z,8.70
2023-02-13T15:22:52.668Z,9.70
2023-02-13T15:25:40.201Z,8.50
2023-02-13T15:28:16.155Z,9.88
2023-02-13T15:33:22.348Z,8.25
2023-02-13T15:36:03.733Z,7.53
2023-02-13T15:38:36.405Z,7.70
2023-02-13T15:41:05.207Z,9.10
2023-02-13T15:43:38.339Z,8.63
2023-02-13T15:46:17.310Z,10.88
2023-02-13T15:48:45.165Z,9.93
2023-02-13T15:51:19.781Z,8.73
2023-02-13T15:54:00.764Z,9.75
2023-02-13T15:56:28.016Z,8.68
2023-02-13T15:58:55.904Z,10.07
2023-02-13T16:01:23.141Z,8.55
2023-02-13T16:03:54.097Z,9.40
2023-02-13T16:06:23.574Z,9.20
2023-02-13T16:08:58.321Z,9.48
2023-02-13T16:11:31.492Z,8.63
2023-02-13T16:14:06.133Z,9.15
2023-02-13T16:17:00.719Z,11.60
2023-02-13T16:19:50.439Z,11.55
2023-02-13T16:22:38.600Z,12.85
2023-02-13T16:25:16.972Z,12.18
2023-02-13T16:27:46.875Z,15.00
2023-02-13T16:30:28.144Z,10.38
2023-02-13T16:33:14.712Z,10.88
2023-02-13T16:35:43.895Z,11.88
2023-02-13T16:38:28.419Z,10.90
2023-02-13T16:40:57.374Z,13.57
2023-02-13T16:43:42.468Z,11.65
2023-02-13T16:46:17.675Z,16.27
2023-02-13T16:48:46.209Z,12.55
2023-02-13T16:51:13.166Z,11.80
2023-02-13T16:53:40.539Z,12.75
2023-02-13T16:56:08.949Z,14.65
2023-02-13T16:58:35.689Z,14.23
2023-02-13T17:01:04.917Z,13.35
2023-02-13T17:03:34.340Z,16.88
2023-02-13T17:06:03.957Z,19.80
2023-02-13T17:08:31.788Z,17.58
2023-02-13T17:11:04.679Z,19.02
2023-02-13T17:13:31.310Z,20.27
2023-02-13T17:15:59.273Z,19.20
2023-02-13T17:18:26.936Z,20.73
2023-02-13T17:20:54.134Z,23.67
2023-02-13T17:23:23.906Z,19.98
2023-02-13T17:25:52.606Z,21.25
2023-02-13T17:28:25.033Z,17.50
2023-02-13T17:30:53.973Z,21.00
2023-02-13T17:33:25.491Z,29.42
2023-02-13T17:35:53.169Z,21.08
2023-02-13T17:38:19.619Z,20.98
2023-02-13T17:40:46.322Z,13.45
2023-02-13T17:43:14.672Z,13.88
2023-02-13T17:45:41.480Z,18.00
2023-02-13T17:48:08.410Z,17.70
2023-02-13T17:50:35.404Z,15.85
2023-02-13T17:53:04.157Z,21.77
2023-02-13T17:55:32.497Z,17.80
2023-02-13T17:57:59.913Z,17.92
2023-02-13T18:00:32.684Z,17.73
2023-02-13T18:03:00.383Z,12.82
2023-02-13T18:05:27.794Z,14.95
2023-02-13T18:07:54.501Z,12.25
2023-02-13T18:10:24.047Z,11.57
2023-02-13T18:12:51.468Z,12.55
2023-02-13T18:15:18.858Z,13.65
2023-02-13T18:17:46.179Z,12.77
2023-02-13T18:20:15.084Z,11.63
2023-02-13T18:22:41.764Z,12.77
2023-02-13T18:25:08.716Z,11.90
2023-02-13T18:27:35.234Z,11.43
2023-02-13T18:30:02.234Z,12.32
2023-02-13T18:32:28.778Z,13.68
2023-02-13T18:34:55.243Z,14.68
2023-02-13T18:37:21.634Z,14.48
2023-02-13T18:39:47.943Z,17.42
2023-02-13T18:42:14.369Z,16.65
2023-02-13T18:44:41.271Z,16.40
2023-02-13T18:47:07.924Z,14.05
2023-02-13T18:49:34.285Z,14.98
2023-02-13T18:52:01.559Z,17.08
2023-02-13T18:54:28.334Z,18.55
2023-02-13T18:56:54.665Z,15.60
2023-02-13T18:59:22.800Z,16.25
2023-02-13T19:01:49.897Z,17.33
2023-02-13T19:04:16.394Z,18.10
2023-02-13T19:06:43.786Z,19.42
2023-02-13T19:09:10.761Z,16.20
2023-02-13T19:11:38.680Z,13.45
2023-02-13T19:14:06.178Z,15.32
2023-02-13T19:16:34.662Z,14.50
2023-02-13T19:19:04.198Z,14.68
2023-02-13T19:21:32.999Z,15.27
2023-02-13T19:23:59.399Z,18.23
2023-02-13T19:26:26.996Z,13.98
2023-02-13T19:28:53.895Z,16.25
2023-02-13T19:31:23.487Z,14.52
2023-02-13T19:33:50.944Z,18.33
2023-02-13T19:36:23.114Z,15.65
2023-02-13T19:38:54.477Z,13.35
2023-02-13T19:41:21.001Z,14.07
2023-02-13T19:43:50.866Z,15.65
2023-02-13T19:46:22.928Z,15.77
2023-02-13T19:48:50.374Z,17.90
2023-02-13T19:51:19.675Z,15.98
2023-02-13T19:53:46.236Z,16.90
2023-02-13T19:56:13.569Z,23.58
2023-02-13T19:58:41.258Z,18.02
2023-02-13T20:01:09.847Z,19.42
2023-02-13T20:03:36.565Z,19.98
2023-02-13T20:06:08.138Z,13.98
2023-02-13T20:08:34.744Z,14.75
2023-02-13T20:11:01.407Z,18.65
2023-02-13T20:13:28.440Z,14.43
2023-02-13T20:15:55.224Z,18.90
2023-02-13T20:18:22.114Z,15.20
2023-02-13T20:20:48.480Z,15.18
2023-02-13T20:23:16.955Z,14.95
2023-02-13T20:25:43.345Z,15.23
2023-02-13T20:28:11.416Z,15.90
2023-02-13T20:30:42.111Z,15.60
2023-02-13T20:33:08.656Z,17.17
2023-02-13T20:35:35.168Z,18.30
2023-02-13T20:38:01.630Z,18.33
2023-02-13T20:40:27.995Z,17.70
2023-02-13T20:42:54.384Z,17.90
2023-02-13T20:45:21.048Z,16.70
2023-02-13T20:47:47.566Z,17.23
2023-02-13T20:50:14.082Z,14.90
2023-02-13T20:52:40.536Z,14.30
2023-02-13T20:55:07.626Z,13.85
2023-02-13T20:57:35.013Z,16.92
2023-02-13T21:00:01.840Z,16.98
2023-02-13T21:02:28.227Z,16.10
2023-02-13T21:04:54.596Z,14.75
2023-02-13T21:07:22.250Z,15.80
2023-02-13T21:09:48.651Z,18.02
2023-02-13T21:12:15.069Z,16.40
2023-02-13T21:14:41.456Z,16.75
2023-02-13T21:17:09.492Z,16.42
2023-02-13T21:19:36.210Z,15.73
2023-02-13T21:22:11.947Z,14.77
2023-02-13T21:27:05.408Z,14.75
2023-02-13T21:29:31.822Z,14.50
2023-02-13T21:31:58.181Z,17.58
2023-02-13T21:34:24.639Z,15.52
2023-02-13T21:36:51.106Z,16.58
2023-02-13T21:39:17.516Z,15.50
2023-02-13T21:41:45.512Z,17.02
2023-02-13T21:44:15.830Z,13.27
2023-02-13T21:46:43.664Z,16.90
2023-02-13T21:49:16.377Z,13.35
2023-02-13T21:51:43.011Z,19.70
2023-02-13T21:54:10.188Z,17.40
2023-02-13T21:56:39.534Z,16.33
2023-02-13T21:59:06.728Z,18.55
2023-02-13T22:01:35.992Z,23.20
2023-02-13T22:04:06.060Z,19.30
2023-02-13T22:06:34.327Z,16.42
2023-02-13T22:09:05.689Z,19.00
2023-02-13T22:11:32.582Z,18.17
2023-02-13T22:14:04.380Z,16.52
2023-02-13T22:16:33.704Z,14.93
2023-02-13T22:19:01.246Z,16.38
2023-02-13T22:21:29.437Z,20.17
2023-02-13T22:23:55.940Z,20.02
2023-02-13T22:26:31.221Z,20.08
2023-02-13T22:29:06.524Z,18.42
2023-02-13T22:31:33.634Z,20.02
2023-02-13T22:34:05.016Z,16.25
2023-02-13T22:36:33.335Z,19.60
2023-02-13T22:38:59.826Z,18.65
2023-02-13T22:41:27.260Z,23.98
2023-02-13T22:43:54.431Z,22.10
2023-02-13T22:46:29.891Z,21.92
2023-02-13T22:48:56.886Z,21.70
2023-02-13T22:51:34.310Z,20.33
2023-02-13T22:54:01.699Z,22.00
2023-02-13T22:56:29.837Z,21.55
2023-02-13T22:58:57.097Z,19.23
2023-02-13T23:01:25.793Z,18.63
2023-02-13T23:03:52.406Z,19.52
2023-02-13T23:06:19.466Z,16.88
2023-02-13T23:08:48.916Z,20.83
2023-02-13T23:11:35.226Z,17.70
2023-02-13T23:14:01.650Z,23.63
2023-02-13T23:16:28.797Z,22.05
2023-02-13T23:18:57.154Z,23.58
2023-02-13T23:21:26.537Z,29.73
2023-02-13T23:23:52.922Z,36.67
2023-02-13T23:26:19.647Z,34.25
2023-02-13T23:28:45.978Z,38.20
2023-02-13T23:31:12.395Z,47.10
2023-02-13T23:33:38.885Z,39.33
2023-02-13T23:36:05.639Z,35.22
2023-02-13T23:38:32.018Z,42.40
2023-02-13T23:41:08.771Z,33.28
2023-02-13T23:43:35.296Z,35.40
2023-02-13T23:46:05.865Z,30.25
2023-02-13T23:48:33.221Z,26.88
2023-02-13T23:50:59.966Z,29.65
2023-02-13T23:53:26.666Z,21.70
2023-02-13T23:55:54.901Z,19.60
2023-02-13T23:58:21.332Z,19.55
